Time;durP1;ratioP1;P1;durP2;ratioP2;P2;SDS_P1;SDS_P2;PMS_P1;PMS_P2;Temp;Humidity;BMP_temperature;BMP_pressure;BME280_temperature;BME280_humidity;BME280_pressure;Samples;Min_cycle;Max_cycle;Signal;HPM_P1;HPM_P2
2022/01/30 00:01:46;;;;;;;;;5.50;4.00;;;;;10.24;76.96;102563.53;5033361;28;45526;-57
2022/01/30 00:04:12;;;;;;;;;7.00;6.50;;;;;10.40;76.67;102599.25;5034258;28;45286;-54
2022/01/30 00:06:38;;;;;;;;;6.00;6.00;;;;;10.38;75.99;102595.81;5034587;28;45344;-56
2022/01/30 00:09:05;;;;;;;;;8.50;8.50;;;;;10.45;76.27;102598.78;5034110;28;45369;-59
2022/01/30 00:11:34;;;;;;;;;7.20;7.20;;;;;10.42;76.29;102586.25;5033476;28;45470;-58
2022/01/30 00:14:02;;;;;;;;;7.80;4.80;;;;;10.40;76.44;102585.53;5033949;28;45475;-57
2022/01/30 00:16:32;;;;;;;;;9.00;8.80;;;;;10.42;76.32;102588.13;5036004;28;45930;-55
2022/01/30 00:19:23;;;;;;;;;4.00;4.00;;;;;10.46;76.21;102596.91;5036036;28;45473;-56
2022/01/30 00:21:59;;;;;;;;;8.80;6.60;;;;;10.44;77.01;102594.31;5038002;28;45325;-57
2022/01/30 00:27:15;;;;;;;;;5.20;5.20;;;;;10.20;76.72;102559.38;5026444;28;45399;-57
2022/01/30 00:29:41;;;;;;;;;2.80;1.20;;;;;10.40;76.40;102591.03;5037698;28;45344;-57
2022/01/30 00:32:07;;;;;;;;;6.50;4.50;;;;;10.33;76.97;102587.22;5037874;28;45626;-57
2022/01/30 00:34:32;;;;;;;;;4.50;3.50;;;;;10.35;76.83;102585.16;5037331;28;46545;-56
2022/01/30 00:37:01;;;;;;;;;7.00;7.00;;;;;10.33;77.31;102578.13;5037195;28;45298;-58
2022/01/30 00:39:26;;;;;;;;;5.00;4.40;;;;;10.35;77.15;102574.19;5037475;28;45593;-54
2022/01/30 00:41:52;;;;;;;;;5.00;4.00;;;;;10.34;77.12;102582.59;5037803;28;45308;-58
2022/01/30 00:44:17;;;;;;;;;6.75;6.00;;;;;10.36;77.55;102566.81;5035754;28;46350;-58
2022/01/30 00:46:44;;;;;;;;;7.00;6.00;;;;;10.31;77.14;102565.44;5036230;28;45396;-57
2022/01/30 00:49:10;;;;;;;;;6.00;4.00;;;;;10.36;77.08;102562.19;5005786;28;48420;-57
2022/01/30 00:51:37;;;;;;;;;6.50;6.00;;;;;10.29;77.23;102566.59;5045530;28;45549;-58
2022/01/30 00:54:03;;;;;;;;;3.80;3.80;;;;;10.29;76.72;102561.13;5037302;28;45621;-58
2022/01/30 00:56:29;;;;;;;;;5.25;3.25;;;;;10.30;77.46;102558.22;5037071;28;45731;-57
2022/01/30 00:58:54;;;;;;;;;4.00;4.00;;;;;10.16;77.09;102539.66;5037194;28;45432;-58
2022/01/30 01:01:20;;;;;;;;;8.50;6.50;;;;;10.27;76.57;102557.69;5036927;28;45383;-59
2022/01/30 01:03:45;;;;;;;;;12.00;9.75;;;;;10.27;77.22;102554.94;5035634;28;46499;-57
2022/01/30 01:06:11;;;;;;;;;6.75;6.00;;;;;10.23;76.69;102540.69;5035384;28;45407;-58
2022/01/30 01:08:51;;;;;;;;;4.00;4.00;;;;;10.19;77.36;102538.47;5037273;28;45267;-56
2022/01/30 01:14:02;;;;;;;;;5.60;4.00;;;;;9.84;77.35;102494.56;5036554;28;45321;-59
2022/01/30 01:24:40;;;;;;;;;6.40;3.60;;;;;10.08;76.96;102531.38;5036269;28;45365;-56
2022/01/30 01:27:06;;;;;;;;;5.00;5.00;;;;;10.05;76.98;102527.09;5035426;28;45351;-55
2022/01/30 01:29:31;;;;;;;;;5.50;5.50;;;;;10.09;76.75;102539.44;5036543;28;45403;-56
2022/01/30 01:31:57;;;;;;;;;7.50;6.50;;;;;10.08;76.74;102532.22;5037105;28;45681;-56
2022/01/30 01:36:48;;;;;;;;;4.00;2.00;;;;;9.99;77.34;102544.19;5036110;28;45270;-58
2022/01/30 01:39:13;;;;;;;;;5.00;4.50;;;;;9.43;77.62;102448.59;5036599;28;45351;-52
2022/01/30 01:41:39;;;;;;;;;7.00;6.50;;;;;9.90;77.47;102515.88;5036245;28;45623;-57
2022/01/30 01:44:14;;;;;;;;;3.50;3.50;;;;;10.04;77.60;102537.19;5036485;28;46461;-59
2022/01/30 01:46:41;;;;;;;;;4.40;4.40;;;;;9.99;77.39;102527.75;5034647;28;45435;-55
2022/01/30 01:49:10;;;;;;;;;9.00;7.00;;;;;10.06;76.56;102530.66;5036579;28;45357;-55
2022/01/30 01:51:35;;;;;;;;;4.40;4.40;;;;;10.09;76.78;102536.69;5034271;28;45599;-53
2022/01/30 01:54:01;;;;;;;;;6.25;6.00;;;;;10.03;77.36;102518.13;5034689;28;46582;-57
2022/01/30 01:56:27;;;;;;;;;9.50;7.00;;;;;9.93;76.97;102498.22;5035624;28;45331;-57
2022/01/30 01:58:52;;;;;;;;;7.00;7.00;;;;;10.19;76.32;102538.47;5034452;28;45373;-56
2022/01/30 02:01:18;;;;;;;;;8.75;5.50;;;;;10.11;76.34;102529.16;5036058;28;45566;-59
2022/01/30 02:03:44;;;;;;;;;6.00;6.00;;;;;9.60;76.53;102444.94;5034321;28;45478;-60
2022/01/30 02:06:13;;;;;;;;;9.50;8.00;;;;;10.21;76.88;102537.28;5035179;28;45271;-58
2022/01/30 02:08:46;;;;;;;;;7.20;5.60;;;;;10.19;76.03;102535.72;5034849;28;45464;-58
2022/01/30 02:11:16;;;;;;;;;7.20;6.00;;;;;10.07;76.31;102515.91;5034647;28;45555;-57
2022/01/30 02:14:01;;;;;;;;;5.60;5.60;;;;;10.25;76.64;102526.81;5035628;28;46270;-57
2022/01/30 02:27:23;;;;;;;;;6.20;6.00;;;;;10.15;75.50;102483.91;5035114;28;45366;-58
2022/01/30 02:29:49;;;;;;;;;8.60;7.00;;;;;10.33;75.46;102521.34;5034464;28;45486;-58
2022/01/30 02:32:14;;;;;;;;;7.25;7.25;;;;;10.38;75.53;102521.72;5035580;28;45514;-54
2022/01/30 02:34:40;;;;;;;;;7.00;7.00;;;;;10.37;75.89;102524.63;5035596;28;45999;-56
2022/01/30 02:37:06;;;;;;;;;6.00;6.00;;;;;10.37;75.55;102521.88;5034544;28;45445;-59
2022/01/30 02:39:31;;;;;;;;;8.00;7.00;;;;;10.26;75.42;102499.19;5017621;28;45489;-58
2022/01/30 02:41:57;;;;;;;;;7.00;7.00;;;;;10.20;75.04;102493.53;5000979;28;45513;-57
2022/01/30 02:44:33;;;;;;;;;9.25;7.75;;;;;10.35;75.32;102524.78;5035121;28;45674;-51
2022/01/30 02:47:07;;;;;;;;;5.60;5.60;;;;;10.27;75.59;102509.16;5033623;28;45357;-59
2022/01/30 02:50:07;;;;;;;;;7.60;7.60;;;;;10.36;75.31;102526.50;5033584;28;45638;-57
2022/01/30 02:52:30;;;;;;;;;8.00;7.80;;;;;10.36;76.12;102515.50;5034935;28;45337;-59
2022/01/30 02:54:56;;;;;;;;;7.80;6.40;;;;;10.22;75.66;102496.94;5033931;28;47258;-57
2022/01/30 02:57:22;;;;;;;;;7.00;7.00;;;;;10.33;76.02;102529.59;5034608;28;45501;-57
2022/01/30 02:59:47;;;;;;;;;9.75;7.00;;;;;10.26;74.91;102517.56;5033393;28;45594;-58
2022/01/30 03:02:13;;;;;;;;;7.00;6.75;;;;;10.27;75.25;102522.88;5035103;28;45405;-57
2022/01/30 03:04:40;;;;;;;;;6.50;4.00;;;;;10.25;75.84;102522.19;5019371;28;46397;-55
2022/01/30 03:07:06;;;;;;;;;12.40;9.20;;;;;10.32;75.48;102530.63;5023708;28;45449;-58
2022/01/30 03:09:31;;;;;;;;;9.50;6.00;;;;;10.33;76.00;102537.81;5035068;28;45400;-58
2022/01/30 03:11:56;;;;;;;;;5.00;4.50;;;;;10.34;75.04;102530.47;5035281;28;45313;-56
2022/01/30 03:14:22;;;;;;;;;12.00;8.00;;;;;10.30;74.91;102533.53;5034670;28;45444;-60
2022/01/30 03:16:47;;;;;;;;;7.25;7.25;;;;;10.30;75.66;102529.94;5034805;28;45331;-59
2022/01/30 03:19:13;;;;;;;;;5.75;5.75;;;;;9.99;75.28;102476.47;5018112;28;45329;-56
2022/01/30 03:21:39;;;;;;;;;10.00;8.50;;;;;10.04;75.67;102498.78;5006470;28;45771;-59
2022/01/30 03:24:05;;;;;;;;;6.25;6.25;;;;;10.26;74.84;102534.88;5033435;28;46570;-59
2022/01/30 03:26:37;;;;;;;;;11.40;10.20;;;;;10.27;74.97;102530.25;5034202;28;45381;-58
2022/01/30 03:29:06;;;;;;;;;9.00;7.00;;;;;10.26;75.25;102529.38;5034972;28;45453;-60
2022/01/30 03:31:41;;;;;;;;;12.80;9.00;;;;;10.27;75.38;102531.13;5034503;28;45341;-59
2022/01/30 03:34:08;;;;;;;;;6.40;4.00;;;;;10.31;75.64;102539.88;5034392;28;46375;-56
2022/01/30 03:36:33;;;;;;;;;7.60;7.60;;;;;10.29;75.22;102539.16;5034099;28;45864;-56
2022/01/30 03:38:59;;;;;;;;;12.00;7.50;;;;;10.27;75.27;102531.13;5033338;28;45588;-55
2022/01/30 03:41:25;;;;;;;;;12.50;9.25;;;;;10.24;74.82;102531.44;5033014;28;45419;-56
2022/01/30 03:43:51;;;;;;;;;6.40;6.40;;;;;10.25;75.28;102533.16;5034294;28;46055;-58
2022/01/30 03:46:21;;;;;;;;;9.00;9.00;;;;;10.23;75.32;102526.09;5034569;28;45424;-53
2022/01/30 03:48:46;;;;;;;;;9.00;7.00;;;;;10.24;75.09;102534.19;5032965;28;45421;-54
2022/01/30 03:51:12;;;;;;;;;10.75;8.75;;;;;10.23;74.18;102534.34;5037311;28;45564;-58
2022/01/30 03:53:37;;;;;;;;;8.00;7.00;;;;;10.21;74.21;102523.56;5037522;28;45712;-56
2022/01/30 03:56:04;;;;;;;;;7.25;7.25;;;;;10.22;74.17;102521.66;5037266;28;45513;-52
2022/01/30 03:58:30;;;;;;;;;14.40;12.40;;;;;10.21;74.02;102519.94;5038153;28;45383;-56
2022/01/30 04:00:55;;;;;;;;;5.60;3.80;;;;;10.22;74.46;102529.88;5037158;28;45425;-53
2022/01/30 04:03:21;;;;;;;;;10.50;9.00;;;;;10.22;74.70;102525.25;5038177;28;45741;-56
2022/01/30 04:05:46;;;;;;;;;9.00;7.00;;;;;10.16;74.42;102528.66;5036524;28;45380;-55
2022/01/30 04:08:12;;;;;;;;;9.25;8.75;;;;;10.18;73.84;102529.34;5020391;28;45417;-56
2022/01/30 04:10:38;;;;;;;;;8.50;7.75;;;;;10.20;74.13;102535.56;5038453;28;45337;-58
2022/01/30 04:13:03;;;;;;;;;6.50;6.00;;;;;10.17;70.80;102528.50;5036049;28;47802;-53
2022/01/30 04:15:29;;;;;;;;;12.00;5.00;;;;;10.19;69.19;102535.72;5036664;28;45276;-55
2022/01/30 04:17:55;;;;;;;;;4.80;3.40;;;;;10.11;67.45;102537.41;5037626;28;45357;-58
2022/01/30 04:20:21;;;;;;;;;4.00;2.75;;;;;10.13;68.02;102537.22;5037147;28;45389;-58
2022/01/30 04:22:47;;;;;;;;;7.50;3.50;;;;;10.11;66.09;102540.16;5027306;28;46533;-58
2022/01/30 04:25:12;;;;;;;;;6.00;3.00;;;;;10.17;66.86;102541.34;5021035;28;46068;-58
2022/01/30 04:27:41;;;;;;;;;6.75;3.00;;;;;10.13;65.75;102549.06;5036257;28;45547;-55
2022/01/30 04:30:09;;;;;;;;;8.00;5.60;;;;;10.12;65.86;102550.09;5036844;28;45429;-55
2022/01/30 04:32:40;;;;;;;;;4.00;3.60;;;;;9.96;65.92;102515.22;5036211;28;45759;-56
2022/01/30 04:35:12;;;;;;;;;6.80;1.80;;;;;10.22;64.68;102549.09;5036302;28;45400;-55
2022/01/30 04:38:32;;;;;;;;;2.00;2.00;;;;;10.16;62.71;102543.22;5036300;28;45885;-50
2022/01/30 04:54:37;;;;;;;;;2.00;2.00;;;;;9.96;59.54;102560.97;5036716;28;45805;-52
2022/01/30 05:02:43;;;;;;;;;2.60;1.60;;;;;9.88;58.00;102567.28;5020376;28;45518;-55
2022/01/30 05:07:56;;;;;;;;;6.60;1.80;;;;;9.73;57.51;102562.38;5035588;28;45539;-57
2022/01/30 05:10:21;;;;;;;;;3.20;0.40;;;;;9.52;57.17;102532.63;5035455;28;45426;-57
2022/01/30 05:12:53;;;;;;;;;7.00;3.50;;;;;9.70;58.64;102565.47;5036715;28;45543;-55
2022/01/30 05:15:20;;;;;;;;;2.80;2.00;;;;;9.73;59.06;102569.75;5019253;28;45457;-51
2022/01/30 05:17:46;;;;;;;;;3.00;1.80;;;;;9.63;57.76;102557.03;5036288;28;45455;-56
2022/01/30 05:20:12;;;;;;;;;7.50;4.00;;;;;9.55;57.49;102546.00;5036701;28;45373;-54
2022/01/30 05:22:38;;;;;;;;;6.00;2.75;;;;;9.68;58.50;102564.78;5037024;28;45358;-55
2022/01/30 05:25:03;;;;;;;;;3.00;2.50;;;;;9.61;57.52;102564.53;5036280;28;46376;-58
2022/01/30 05:27:29;;;;;;;;;3.40;2.80;;;;;9.61;59.11;102578.25;5035792;28;45390;-55
2022/01/30 05:29:55;;;;;;;;;4.50;2.00;;;;;9.56;58.10;102572.38;5036433;28;45378;-56
2022/01/30 05:32:21;;;;;;;;;5.80;2.20;;;;;9.58;59.24;102578.59;5035220;28;45707;-56
2022/01/30 05:34:47;;;;;;;;;8.50;2.25;;;;;9.65;59.45;102580.69;5036183;28;45299;-56
2022/01/30 05:37:12;;;;;;;;;2.00;2.00;;;;;9.69;59.34;102588.41;5036078;28;45460;-52
2022/01/30 05:39:38;;;;;;;;;2.25;2.25;;;;;9.66;58.65;102587.88;5034822;28;45468;-57
2022/01/30 05:42:04;;;;;;;;;4.50;2.00;;;;;9.61;59.20;102586.47;5036221;28;45398;-57
2022/01/30 05:47:23;;;;;;;;;5.80;1.60;;;;;9.67;60.04;102586.84;5036120;28;45825;-53
2022/01/30 05:49:48;;;;;;;;;3.40;0.80;;;;;9.63;59.60;102583.56;5036055;28;45385;-55
2022/01/30 05:52:14;;;;;;;;;4.25;2.50;;;;;9.70;58.94;102590.13;5035256;28;45370;-54
2022/01/30 05:54:40;;;;;;;;;2.25;1.00;;;;;9.54;58.37;102568.94;5034850;28;47130;-57
2022/01/30 05:57:05;;;;;;;;;4.00;2.00;;;;;9.61;58.85;102596.59;5036308;28;45407;-51
2022/01/30 05:59:31;;;;;;;;;6.75;2.00;;;;;9.36;59.11;102563.50;5035844;28;45539;-53
2022/01/30 06:01:56;;;;;;;;;4.00;2.00;;;;;9.49;58.10;102587.75;5036608;28;45431;-51
2022/01/30 06:04:22;;;;;;;;;2.75;0.25;;;;;9.47;58.82;102598.03;5036020;28;45409;-53
2022/01/30 06:06:51;;;;;;;;;1.00;0.00;;;;;9.42;58.73;102600.38;5035963;28;45312;-56
2022/01/30 06:11:42;;;;;;;;;3.00;2.00;;;;;9.36;57.78;102599.97;5036541;28;45812;-55
2022/01/30 06:14:07;;;;;;;;;5.00;1.00;;;;;9.34;58.80;102590.22;5034917;28;45702;-53
2022/01/30 06:16:33;;;;;;;;;3.50;2.50;;;;;8.97;58.10;102523.66;5018044;28;45453;-55
2022/01/30 06:18:59;;;;;;;;;0.50;0.00;;;;;9.44;58.45;102599.19;5036060;28;45372;-56
2022/01/30 06:21:24;;;;;;;;;4.00;1.25;;;;;9.47;58.73;102607.13;5034704;28;45772;-55
2022/01/30 06:23:50;;;;;;;;;4.00;3.00;;;;;9.45;58.97;102614.63;5035449;28;46768;-51
2022/01/30 06:26:15;;;;;;;;;3.25;3.00;;;;;9.47;59.44;102623.56;5035784;28;45451;-55
2022/01/30 06:28:41;;;;;;;;;3.75;1.25;;;;;9.49;58.46;102618.78;5035355;28;45753;-55
2022/01/30 06:31:06;;;;;;;;;3.50;2.25;;;;;9.48;59.11;102627.16;5036254;28;45425;-51
2022/01/30 06:33:32;;;;;;;;;1.00;1.00;;;;;9.49;59.85;102626.13;5035690;28;46666;-55
2022/01/30 06:35:58;;;;;;;;;2.25;1.75;;;;;9.39;57.84;102626.22;5035534;28;45339;-51
2022/01/30 06:38:23;;;;;;;;;4.25;2.00;;;;;9.25;58.15;102602.09;5035612;28;45323;-57
2022/01/30 06:40:49;;;;;;;;;2.25;2.25;;;;;9.38;58.30;102623.66;5035312;28;45638;-55
2022/01/30 06:43:14;;;;;;;;;5.00;2.00;;;;;9.43;59.01;102618.53;5035514;28;45395;-57
2022/01/30 06:45:42;;;;;;;;;5.50;2.75;;;;;9.15;57.93;102586.63;5035475;28;45362;-52
2022/01/30 06:48:08;;;;;;;;;2.00;2.00;;;;;9.40;58.70;102627.09;5035575;28;45325;-52
2022/01/30 06:50:33;;;;;;;;;3.50;1.00;;;;;9.33;59.21;102611.28;5035406;28;45422;-56
2022/01/30 06:52:59;;;;;;;;;4.50;3.00;;;;;9.20;57.93;102597.97;5033932;28;45740;-55
2022/01/30 06:55:24;;;;;;;;;3.00;2.00;;;;;9.37;57.71;102622.78;5035114;28;45406;-56
2022/01/30 06:57:50;;;;;;;;;2.00;2.00;;;;;9.39;58.95;102626.22;5035049;28;45319;-58
2022/01/30 07:00:16;;;;;;;;;4.75;2.25;;;;;9.40;58.39;102621.59;5034494;28;45360;-57
2022/01/30 07:02:41;;;;;;;;;2.00;2.00;;;;;9.43;57.46;102622.16;5034905;28;45479;-56
2022/01/30 07:05:07;;;;;;;;;4.00;2.25;;;;;9.46;58.43;102626.44;5011087;28;45737;-56
2022/01/30 07:07:32;;;;;;;;;2.00;1.00;;;;;9.41;57.66;102626.06;5016102;28;45650;-54
2022/01/30 07:09:58;;;;;;;;;3.75;2.25;;;;;9.42;59.06;102625.91;5035016;28;45369;-57
2022/01/30 07:12:24;;;;;;;;;1.25;1.25;;;;;9.41;58.28;102621.44;5033257;28;45651;-54
2022/01/30 07:14:49;;;;;;;;;1.75;1.75;;;;;9.33;56.82;102613.13;5034580;28;45333;-58
2022/01/30 07:17:15;;;;;;;;;3.00;2.00;;;;;9.16;57.20;102598.44;5033585;28;45346;-54
2022/01/30 07:19:41;;;;;;;;;5.00;1.50;;;;;9.29;58.47;102631.78;5035180;28;45235;-54
2022/01/30 07:22:06;;;;;;;;;6.25;4.00;;;;;9.35;58.16;102641.28;5034789;28;45339;-57
2022/01/30 07:24:32;;;;;;;;;1.00;1.00;;;;;9.35;57.55;102636.63;5032288;28;45382;-55
2022/01/30 07:26:58;;;;;;;;;3.00;2.00;;;;;8.84;57.69;102562.34;5034791;28;45439;-54
2022/01/30 07:29:23;;;;;;;;;5.75;1.75;;;;;9.17;57.67;102643.97;5034943;28;45441;-56
2022/01/30 07:31:49;;;;;;;;;4.25;2.00;;;;;9.12;58.70;102643.63;5033615;28;45648;-58
2022/01/30 07:34:14;;;;;;;;;2.00;2.00;;;;;9.15;58.18;102662.47;5033614;28;45417;-53
2022/01/30 07:36:41;;;;;;;;;2.50;2.50;;;;;9.11;58.72;102666.56;5034976;28;45354;-54
2022/01/30 07:39:07;;;;;;;;;3.00;3.00;;;;;9.02;58.30;102669.19;5016692;28;45388;-55
2022/01/30 07:41:33;;;;;;;;;3.40;1.80;;;;;8.99;60.11;102677.72;5034480;28;45724;-53
2022/01/30 07:44:02;;;;;;;;;3.75;2.00;;;;;8.93;58.81;102675.59;5033225;28;45612;-51
2022/01/30 07:46:28;;;;;;;;;2.40;1.00;;;;;8.84;59.94;102676.50;5034533;28;45326;-51
2022/01/30 07:48:54;;;;;;;;;2.00;2.00;;;;;8.86;59.32;102678.06;5034748;28;45386;-52
2022/01/30 07:51:20;;;;;;;;;3.00;3.00;;;;;8.87;60.59;102677.06;5034026;28;46213;-51
2022/01/30 07:53:46;;;;;;;;;5.00;3.00;;;;;8.97;60.09;102684.34;5034302;28;45403;-53
2022/01/30 07:56:14;;;;;;;;;4.25;2.00;;;;;8.99;59.44;102682.31;5034453;28;45356;-54
2022/01/30 07:58:40;;;;;;;;;5.60;3.20;;;;;8.80;59.51;102662.25;5034824;28;45540;-50
2022/01/30 08:01:05;;;;;;;;;1.50;1.50;;;;;8.74;59.07;102666.47;5034014;28;45822;-55
2022/01/30 08:03:31;;;;;;;;;1.00;1.00;;;;;8.97;59.45;102692.56;5034193;28;45666;-58
2022/01/30 08:05:56;;;;;;;;;2.75;2.75;;;;;8.92;59.71;102685.66;5033161;28;45463;-52
2022/01/30 08:08:22;;;;;;;;;8.00;4.50;;;;;8.96;60.53;102699.91;5034381;28;45499;-52
2022/01/30 08:10:47;;;;;;;;;3.00;1.00;;;;;8.99;59.55;102706.97;5034366;28;45352;-54
2022/01/30 08:13:14;;;;;;;;;3.25;2.50;;;;;8.88;59.78;102680.66;5033038;28;45521;-54
2022/01/30 08:15:40;;;;;;;;;3.60;1.80;;;;;8.80;59.90;102664.97;5034118;28;45423;-56
2022/01/30 08:18:06;;;;;;;;;6.00;2.00;;;;;8.98;60.05;102697.91;5032866;28;45512;-56
2022/01/30 08:20:31;;;;;;;;;7.25;2.50;;;;;8.98;60.05;102706.13;5032679;28;46355;-57
2022/01/30 08:22:57;;;;;;;;;3.00;3.00;;;;;8.92;60.43;102684.81;5033175;28;45355;-56
2022/01/30 08:25:23;;;;;;;;;4.00;3.50;;;;;9.02;59.64;102691.09;5032495;28;45775;-55
2022/01/30 08:27:49;;;;;;;;;6.60;3.00;;;;;9.12;60.28;102690.19;5016233;28;45567;-55
2022/01/30 08:30:15;;;;;;;;;3.50;2.25;;;;;9.21;59.18;102705.69;4999499;28;46989;-52
2022/01/30 08:32:44;;;;;;;;;1.50;1.50;;;;;9.22;59.57;102704.66;5034044;28;45320;-57
2022/01/30 08:35:11;;;;;;;;;3.80;3.00;;;;;9.26;59.73;102697.88;5034022;28;45264;-57
2022/01/30 08:37:36;;;;;;;;;5.60;3.60;;;;;9.31;58.76;102691.91;5035973;28;45626;-55
2022/01/30 08:40:06;;;;;;;;;6.25;3.00;;;;;9.29;58.30;102702.19;5037287;28;46443;-56
2022/01/30 08:42:32;;;;;;;;;6.00;3.80;;;;;9.21;58.06;102697.47;5035715;28;45342;-57
2022/01/30 08:44:57;;;;;;;;;2.25;1.75;;;;;9.18;58.29;102689.56;5037506;28;45317;-52
2022/01/30 08:47:23;;;;;;;;;6.00;4.25;;;;;9.15;57.81;102689.84;5037355;28;45524;-53
2022/01/30 08:49:48;;;;;;;;;8.75;3.00;;;;;9.02;58.60;102668.34;5036745;28;45483;-55
2022/01/30 08:52:16;;;;;;;;;7.00;3.00;;;;;9.17;58.91;102694.16;5037135;28;45457;-55
2022/01/30 08:54:42;;;;;;;;;7.80;3.40;;;;;9.15;58.54;102707.19;5036986;28;45401;-50
2022/01/30 08:57:07;;;;;;;;;1.40;1.40;;;;;9.14;58.24;102699.97;5037577;28;45327;-56
2022/01/30 08:59:33;;;;;;;;;4.25;2.00;;;;;9.16;58.19;102702.53;5036947;28;45450;-56
2022/01/30 09:01:58;;;;;;;;;3.50;2.00;;;;;9.15;58.58;102703.56;5035689;28;45594;-53
2022/01/30 09:04:24;;;;;;;;;6.50;6.50;;;;;9.13;57.44;102700.97;5036844;28;45316;-53
2022/01/30 09:06:54;;;;;;;;;3.25;2.25;;;;;9.06;57.89;102711.69;5036972;28;45642;-55
2022/01/30 09:09:19;;;;;;;;;2.60;1.60;;;;;9.09;58.04;102705.88;5035926;28;45428;-57
2022/01/30 09:11:45;;;;;;;;;2.00;2.00;;;;;9.05;57.81;102703.63;5035266;28;45414;-57
2022/01/30 09:14:10;;;;;;;;;4.50;2.25;;;;;9.08;58.19;102706.91;5037323;28;45475;-56
2022/01/30 09:16:36;;;;;;;;;3.75;1.25;;;;;9.03;57.02;102701.03;5037056;28;45330;-60
2022/01/30 09:19:02;;;;;;;;;3.25;1.00;;;;;8.87;56.94;102682.56;4981723;28;45927;-57
2022/01/30 09:21:28;;;;;;;;;3.00;3.00;;;;;8.98;57.93;102692.44;5044789;28;45392;-56
2022/01/30 09:23:55;;;;;;;;;2.60;2.20;;;;;9.08;57.61;102712.38;5077440;27;45301;-54
2022/01/30 09:26:20;;;;;;;;;6.20;3.00;;;;;9.06;56.20;102710.81;5077289;27;45353;-58
2022/01/30 09:28:46;;;;;;;;;3.00;3.00;;;;;9.04;57.11;102710.13;5076082;27;45633;-61
2022/01/30 09:31:12;;;;;;;;;2.00;2.00;;;;;9.04;56.69;102716.47;5075402;28;45438;-57
2022/01/30 09:33:38;;;;;;;;;3.50;1.00;;;;;9.09;57.51;102713.25;5077094;28;45352;-57
2022/01/30 09:36:04;;;;;;;;;3.20;2.20;;;;;9.09;56.87;102719.59;5076987;28;45549;-57
2022/01/30 09:38:30;;;;;;;;;4.20;3.20;;;;;9.09;57.01;102718.75;5077197;27;46777;-56
2022/01/30 09:40:56;;;;;;;;;2.50;2.50;;;;;9.01;56.11;102718.66;5076969;28;45481;-55
2022/01/30 09:43:22;;;;;;;;;3.20;1.40;;;;;9.00;55.80;102720.53;5076917;27;45474;-59
2022/01/30 09:45:48;;;;;;;;;3.25;2.00;;;;;8.86;57.57;102685.44;5075534;28;45495;-54
2022/01/30 09:48:13;;;;;;;;;6.50;4.25;;;;;9.02;56.82;102710.25;5074201;28;46918;-55
2022/01/30 09:50:39;;;;;;;;;4.25;2.75;;;;;9.16;57.58;102716.25;5075121;28;45428;-59
2022/01/30 09:53:05;;;;;;;;;8.00;3.20;;;;;9.27;57.49;102723.38;5046589;28;45357;-57
2022/01/30 09:55:31;;;;;;;;;5.00;3.00;;;;;9.30;56.51;102715.72;5072652;27;45514;-57
2022/01/30 09:57:56;;;;;;;;;3.25;3.25;;;;;9.21;57.26;102713.91;5056274;28;46169;-51
2022/01/30 10:00:22;;;;;;;;;1.75;1.75;;;;;9.24;55.63;102727.31;5054614;28;45410;-55
2022/01/30 10:02:47;;;;;;;;;2.00;1.00;;;;;9.25;55.94;102719.94;5056285;28;45247;-55
2022/01/30 10:05:14;;;;;;;;;4.25;2.75;;;;;9.27;56.14;102723.38;5054874;28;45531;-53
2022/01/30 10:07:40;;;;;;;;;6.00;3.40;;;;;9.35;56.28;102718.84;5054562;28;45683;-54
2022/01/30 10:10:08;;;;;;;;;5.00;5.00;;;;;9.41;55.73;102716.50;5054564;28;45309;-55
2022/01/30 10:12:34;;;;;;;;;5.00;4.20;;;;;9.50;55.13;102712.81;5056314;28;45361;-51
2022/01/30 10:15:00;;;;;;;;;3.80;3.80;;;;;9.23;55.74;102662.53;5055950;28;45812;-55
2022/01/30 10:17:33;;;;;;;;;7.20;1.60;;;;;9.51;56.27;102695.38;4984305;28;46038;-60
2022/01/30 10:20:12;;;;;;;;;3.00;2.00;;;;;9.45;54.19;102704.22;5018715;28;45657;-56
2022/01/30 10:22:50;;;;;;;;;3.40;2.40;;;;;9.56;54.24;102725.06;5059764;28;45774;-52
2022/01/30 10:25:29;;;;;;;;;2.00;1.20;;;;;9.46;55.11;102719.66;5025206;28;45464;-59
2022/01/30 10:28:12;;;;;;;;;2.60;2.00;;;;;9.48;55.42;102720.34;5029452;28;46550;-59
2022/01/30 10:31:00;;;;;;;;;3.60;3.60;;;;;9.59;54.63;102708.28;5028838;28;45539;-59
2022/01/30 10:33:49;;;;;;;;;6.80;5.40;;;;;9.59;55.44;102708.28;5028923;28;45402;-58
2022/01/30 10:36:23;;;;;;;;;6.00;3.60;;;;;9.68;54.77;102711.97;5029065;28;45529;-56
2022/01/30 10:39:11;;;;;;;;;6.20;5.40;;;;;9.64;54.59;102719.63;5031324;28;45860;-57
2022/01/30 10:41:38;;;;;;;;;7.80;3.20;;;;;9.63;54.63;102710.56;5031386;28;45422;-58
2022/01/30 10:44:07;;;;;;;;;6.60;5.60;;;;;9.14;54.99;102614.16;5031216;28;45441;-55
2022/01/30 10:46:38;;;;;;;;;6.60;2.80;;;;;9.79;55.83;102708.97;5031765;28;45809;-56
2022/01/30 10:49:11;;;;;;;;;8.60;7.00;;;;;9.63;55.13;102668.56;5028483;28;46061;-58
2022/01/30 10:51:37;;;;;;;;;7.40;6.20;;;;;9.46;54.50;102631.94;5030920;28;45528;-59
2022/01/30 10:54:08;;;;;;;;;14.00;7.75;;;;;9.91;55.54;102701.34;5029634;28;45452;-60
2022/01/30 10:56:33;;;;;;;;;7.80;6.20;;;;;10.01;54.28;102707.63;5031398;28;45521;-58
2022/01/30 10:59:08;;;;;;;;;4.25;1.75;;;;;10.03;53.55;102707.44;5029266;28;45504;-56
2022/01/30 11:01:33;;;;;;;;;5.80;3.60;;;;;9.90;53.70;102678.56;5029883;28;45782;-58
2022/01/30 11:04:00;;;;;;;;;6.00;3.25;;;;;10.06;54.83;102695.28;5029747;28;45492;-59
2022/01/30 11:06:29;;;;;;;;;4.00;4.00;;;;;10.02;54.37;102675.53;5030461;28;45462;-58
2022/01/30 11:09:04;;;;;;;;;5.60;5.60;;;;;10.24;53.92;102700.75;5030956;28;46442;-56
2022/01/30 11:19:16;;;;;;;;;4.00;4.00;;;;;10.41;52.35;102687.97;5029528;28;45911;-56
2022/01/30 11:21:42;;;;;;;;;7.00;2.60;;;;;10.44;52.74;102662.97;5016108;28;45964;-58
2022/01/30 11:24:08;;;;;;;;;7.40;5.60;;;;;10.66;53.19;102682.63;5019576;28;45847;-55
2022/01/30 11:26:34;;;;;;;;;9.00;6.00;;;;;10.78;52.43;102677.69;5023682;28;45601;-58
2022/01/30 11:28:59;;;;;;;;;4.25;3.00;;;;;10.88;51.29;102678.41;5029225;28;45480;-56
2022/01/30 11:31:25;;;;;;;;;8.50;7.25;;;;;10.95;50.76;102684.97;5028750;28;45853;-59
2022/01/30 11:33:52;;;;;;;;;8.75;5.00;;;;;11.00;51.88;102678.97;5030446;28;45525;-57
2022/01/30 11:36:19;;;;;;;;;8.00;3.00;;;;;11.11;50.96;102664.91;5027837;28;45561;-59
2022/01/30 11:38:45;;;;;;;;;8.00;7.00;;;;;11.18;50.79;102656.00;5012189;28;47579;-58
2022/01/30 11:41:12;;;;;;;;;4.75;4.00;;;;;11.63;51.00;102654.66;5029025;28;45770;-57
2022/01/30 11:43:38;;;;;;;;;4.60;3.40;;;;;13.65;48.23;102658.13;5030302;28;45413;-59
2022/01/30 11:46:22;;;;;;;;;5.75;4.25;;;;;18.89;38.87;102645.19;5028867;28;45688;-58
2022/01/30 11:49:10;;;;;;;;;5.00;4.20;;;;;22.44;32.40;102639.31;5028517;28;45488;-57
2022/01/30 11:51:49;;;;;;;;;5.80;5.80;;;;;25.01;27.91;102628.91;5028608;28;45524;-59
2022/01/30 11:54:36;;;;;;;;;6.80;6.80;;;;;26.52;23.84;102621.59;5028985;28;45548;-59
2022/01/30 11:57:20;;;;;;;;;8.20;6.80;;;;;27.34;22.47;102594.72;5030377;28;45815;-59
2022/01/30 11:59:47;;;;;;;;;8.00;4.60;;;;;28.72;22.10;102595.75;5010510;28;45479;-58
2022/01/30 12:02:30;;;;;;;;;8.20;6.40;;;;;29.49;21.75;102594.34;5027786;28;45566;-61
2022/01/30 12:04:58;;;;;;;;;4.40;4.40;;;;;30.36;21.42;102619.19;5030266;28;45358;-57
2022/01/30 12:07:47;;;;;;;;;5.40;5.40;;;;;27.26;24.02;102612.19;5030461;28;45450;-55
2022/01/30 12:10:27;;;;;;;;;11.20;5.20;;;;;24.42;25.24;102609.94;5030427;28;45675;-57
2022/01/30 12:13:03;;;;;;;;;11.40;7.20;;;;;21.75;29.39;102622.13;5032471;28;45388;-61
2022/01/30 12:15:45;;;;;;;;;8.40;7.00;;;;;19.99;31.91;102622.78;5033700;28;45598;-58
2022/01/30 12:18:14;;;;;;;;;9.40;7.00;;;;;18.50;34.14;102626.53;5056412;28;45420;-58
2022/01/30 12:21:08;;;;;;;;;8.40;6.20;;;;;17.40;36.15;102617.69;5032330;28;45411;-58
2022/01/30 12:23:35;;;;;;;;;4.20;3.40;;;;;16.61;37.07;102611.72;5033963;28;45887;-58
2022/01/30 12:26:06;;;;;;;;;27.80;25.00;;;;;16.04;38.44;102600.78;5031911;28;45463;-58
2022/01/30 12:28:51;;;;;;;;;9.80;8.60;;;;;15.63;39.39;102596.84;5032599;28;45778;-60
2022/01/30 12:31:35;;;;;;;;;7.00;5.20;;;;;15.90;38.01;102589.56;5033460;28;46456;-60
2022/01/30 12:34:14;;;;;;;;;10.80;8.80;;;;;15.45;39.14;102576.06;5001698;28;45685;-60
2022/01/30 12:36:53;;;;;;;;;9.20;6.20;;;;;14.92;40.01;102574.50;5056956;28;45911;-56